Time;durP1;ratioP1;P1;durP2;ratioP2;P2;SDS_P1;SDS_P2;PMS_P1;PMS_P2;Temp;Humidity;BMP_temperature;BMP_pressure;BME280_temperature;BME280_humidity;BME280_pressure;Samples;Min_cycle;Max_cycle;Signal;HPM_P1;HPM_P2
2022/12/14 00:00:46;;;;;;;12.13;8.17;;;;;;;2.45;100.00;99416.47;5071295;28;20199;-58
2022/12/14 00:03:14;;;;;;;11.67;8.20;;;;;;;2.38;100.00;99399.34;5071012;28;20227;-58
2022/12/14 00:05:42;;;;;;;12.60;8.33;;;;;;;2.45;100.00;99408.78;5071454;28;20203;-57
2022/12/14 00:08:10;;;;;;;13.33;8.70;;;;;;;2.48;100.00;99419.03;5071262;28;20244;-57
2022/12/14 00:10:38;;;;;;;10.47;8.03;;;;;;;2.54;100.00;99417.31;5071787;28;20687;-56
2022/12/14 00:13:06;;;;;;;10.33;7.80;;;;;;;2.48;100.00;99421.59;5071628;28;20196;-57
2022/12/14 00:15:33;;;;;;;10.50;7.87;;;;;;;2.43;100.00;99418.16;5071819;28;20698;-57
2022/12/14 00:18:00;;;;;;;11.07;8.03;;;;;;;2.45;100.00;99422.44;5071461;28;20212;-57
2022/12/14 00:20:27;;;;;;;11.17;8.13;;;;;;;2.41;100.00;99414.72;5071258;28;20208;-57
2022/12/14 00:22:56;;;;;;;14.87;8.23;;;;;;;2.45;100.00;99413.91;5071544;28;20752;-57
2022/12/14 00:25:24;;;;;;;12.03;8.50;;;;;;;2.43;100.00;99419.00;5071277;28;20285;-56
2022/12/14 00:27:51;;;;;;;12.37;8.00;;;;;;;2.36;100.00;99422.41;5071309;28;20289;-57
2022/12/14 00:30:20;;;;;;;9.10;7.87;;;;;;;2.38;100.00;99419.84;5071127;28;20604;-57
2022/12/14 00:32:47;;;;;;;9.30;7.67;;;;;;;2.40;100.00;99418.13;5071091;28;20205;-58
2022/12/14 00:35:17;;;;;;;12.23;8.20;;;;;;;2.36;100.00;99413.88;5070939;28;20605;-57
2022/12/14 00:37:44;;;;;;;10.33;7.50;;;;;;;2.43;100.00;99419.00;5072372;28;20203;-62
2022/12/14 00:40:13;;;;;;;10.47;7.27;;;;;;;2.36;100.00;99416.44;5072138;28;20203;-61
2022/12/14 00:42:39;;;;;;;12.03;8.33;;;;;;;2.35;100.00;99407.03;5072061;28;20221;-62
2022/12/14 00:45:08;;;;;;;13.67;9.00;;;;;;;2.36;100.00;99401.06;5071923;28;20283;-62
2022/12/14 00:47:35;;;;;;;11.50;8.73;;;;;;;2.22;100.00;99403.59;5072114;28;20569;-62
2022/12/14 00:50:02;;;;;;;13.27;7.87;;;;;;;2.28;100.00;99403.59;5071348;28;20196;-57
2022/12/14 00:52:28;;;;;;;11.87;8.27;;;;;;;2.25;100.00;99413.00;5071133;28;20668;-57
2022/12/14 00:54:55;;;;;;;12.23;8.57;;;;;;;2.27;100.00;99409.56;5070700;28;20211;-57
2022/12/14 00:57:24;;;;;;;13.57;8.30;;;;;;;2.33;99.60;99409.59;5070626;28;20667;-56
2022/12/14 00:59:50;;;;;;;15.33;8.70;;;;;;;2.32;99.87;99418.13;5070340;28;20201;-56
2022/12/14 01:02:17;;;;;;;10.30;8.00;;;;;;;2.31;100.00;99407.88;5071309;28;20201;-61
2022/12/14 01:04:44;;;;;;;10.40;7.67;;;;;;;2.37;99.84;99410.47;5071739;28;20230;-62
2022/12/14 01:07:11;;;;;;;12.63;8.50;;;;;;;2.41;99.16;99414.72;5071554;28;20236;-62
2022/12/14 01:09:38;;;;;;;12.00;8.23;;;;;;;2.38;100.00;99410.44;5071450;28;20344;-62
2022/12/14 01:12:05;;;;;;;19.00;8.37;;;;;;;2.50;99.04;99415.59;5071798;28;20197;-61
2022/12/14 01:14:34;;;;;;;13.87;8.80;;;;;;;2.45;100.00;99407.06;5071606;28;20192;-61
2022/12/14 01:17:01;;;;;;;12.10;8.43;;;;;;;2.42;99.58;99398.50;5071484;28;20208;-61
2022/12/14 01:19:27;;;;;;;12.43;8.27;;;;;;;2.46;99.83;99407.91;5071329;28;20289;-61
2022/12/14 01:21:54;;;;;;;10.80;7.37;;;;;;;2.46;99.99;99407.91;5071493;28;20632;-62
2022/12/14 01:24:21;;;;;;;15.07;9.33;;;;;;;2.40;100.00;99407.91;5070308;28;20225;-56
2022/12/14 01:26:48;;;;;;;11.20;8.27;;;;;;;2.33;100.00;99412.16;5070129;28;20199;-57
2022/12/14 01:29:16;;;;;;;13.80;8.27;;;;;;;2.31;100.00;99392.50;5069861;28;20666;-57
2022/12/14 01:31:44;;;;;;;13.50;8.67;;;;;;;2.38;100.00;99396.78;5070263;28;20638;-57
2022/12/14 01:34:11;;;;;;;11.57;7.97;;;;;;;2.37;100.00;99397.66;5070290;28;20593;-56
2022/12/14 01:36:38;;;;;;;11.57;7.93;;;;;;;2.31;100.00;99402.75;5069924;28;20192;-57
2022/12/14 01:39:08;;;;;;;12.00;8.37;;;;;;;2.30;99.25;99407.03;5069359;28;20201;-57
2022/12/14 01:41:38;;;;;;;14.03;9.10;;;;;;;2.15;100.00;99405.25;5069654;28;20656;-56
2022/12/14 01:44:43;;;;;;;13.10;8.37;;;;;;;2.23;100.00;99417.25;5070496;28;20220;-60
2022/12/14 01:47:20;;;;;;;14.07;8.83;;;;;;;2.32;99.99;99417.28;5070564;28;20192;-61
2022/12/14 01:49:54;;;;;;;11.73;8.47;;;;;;;2.32;100.00;99423.25;5071239;28;20682;-61
2022/12/14 01:52:25;;;;;;;20.17;8.47;;;;;;;2.35;100.00;99424.97;5070482;28;20202;-61
2022/12/14 01:54:57;;;;;;;12.63;7.87;;;;;;;2.35;98.23;99424.97;5070771;28;20202;-61
2022/12/14 01:57:28;;;;;;;11.97;8.10;;;;;;;2.28;98.81;99418.97;5070691;28;20207;-61
2022/12/14 01:59:56;;;;;;;11.50;7.97;;;;;;;2.27;99.35;99426.63;5070630;28;20322;-61
2022/12/14 02:02:26;;;;;;;12.40;8.80;;;;;;;2.27;99.00;99421.50;5070285;28;20220;-57
2022/12/14 02:04:57;;;;;;;11.47;7.90;;;;;;;2.36;98.34;99421.56;5069445;28;20229;-56
2022/12/14 02:07:26;;;;;;;11.20;7.90;;;;;;;2.40;97.33;99429.25;5069224;28;20236;-56
2022/12/14 02:09:57;;;;;;;10.03;7.47;;;;;;;2.44;98.30;99430.09;5070031;28;20197;-56
2022/12/14 02:12:29;;;;;;;11.30;7.70;;;;;;;2.44;97.38;99415.59;5068822;28;20218;-56
2022/12/14 02:14:56;;;;;;;10.43;7.97;;;;;;;2.50;98.34;99414.75;5069391;28;20228;-56
2022/12/14 02:17:24;;;;;;;13.33;7.57;;;;;;;2.58;97.72;99417.34;5069286;28;20210;-56
2022/12/14 02:19:51;;;;;;;12.47;8.07;;;;;;;2.52;97.54;99424.16;5069591;28;20197;-56
2022/12/14 02:23:02;;;;;;;12.17;8.40;;;;;;;2.45;97.01;99427.56;5069134;28;20198;-56
2022/12/14 02:26:01;;;;;;;11.03;7.50;;;;;;;2.41;97.13;99428.38;5069140;28;20198;-57
2022/12/14 02:28:54;;;;;;;10.20;7.60;;;;;;;2.48;98.04;99442.09;5063736;28;20196;-56
2022/12/14 02:31:32;;;;;;;10.00;7.90;;;;;;;2.43;97.97;99430.97;5069120;28;20202;-56
2022/12/14 02:34:09;;;;;;;10.80;7.83;;;;;;;2.46;96.98;99424.16;5069088;28;20198;-56
2022/12/14 02:36:45;;;;;;;11.43;7.93;;;;;;;2.40;98.09;99425.81;5069663;28;20646;-62
2022/12/14 02:39:27;;;;;;;10.87;7.63;;;;;;;2.39;97.29;99424.09;5070753;28;20195;-61
2022/12/14 02:42:02;;;;;;;12.30;7.90;;;;;;;2.24;97.36;99419.81;5070323;28;20199;-62
2022/12/14 02:44:40;;;;;;;10.70;7.87;;;;;;;2.23;98.37;99432.63;5069688;28;20714;-56
2022/12/14 02:47:15;;;;;;;10.77;7.83;;;;;;;2.25;97.83;99425.81;5068871;28;20232;-56
2022/12/14 02:49:57;;;;;;;10.57;7.50;;;;;;;2.09;98.50;99423.19;5068767;28;20199;-59
2022/12/14 02:52:37;;;;;;;9.40;7.57;;;;;;;2.15;99.30;99418.06;5068837;28;20202;-56
2022/12/14 02:55:08;;;;;;;12.37;8.67;;;;;;;2.15;98.90;99428.31;5069006;28;20193;-58
2022/12/14 02:57:41;;;;;;;12.20;7.97;;;;;;;2.11;99.40;99424.03;5069251;28;20204;-57
2022/12/14 03:00:09;;;;;;;11.50;8.60;;;;;;;2.02;99.31;99436.81;5068839;28;20208;-56
2022/12/14 03:02:40;;;;;;;13.83;8.40;;;;;;;2.11;100.00;99436.00;5069115;28;20704;-57
2022/12/14 03:05:08;;;;;;;11.80;7.87;;;;;;;2.21;99.90;99426.63;5069081;28;20220;-61
2022/12/14 03:07:42;;;;;;;10.73;7.73;;;;;;;2.21;97.99;99424.06;5069789;28;20230;-61
2022/12/14 03:10:17;;;;;;;11.17;8.27;;;;;;;2.18;98.36;99423.19;5069539;28;20686;-61
2022/12/14 03:12:51;;;;;;;14.50;8.53;;;;;;;2.22;99.23;99418.09;5069578;28;20196;-61
2022/12/14 03:15:20;;;;;;;14.57;8.17;;;;;;;2.30;97.98;99416.41;5069549;28;20202;-56
2022/12/14 03:17:53;;;;;;;13.23;8.00;;;;;;;2.24;98.63;99414.69;5069674;28;20226;-61
2022/12/14 03:20:24;;;;;;;12.20;8.17;;;;;;;2.25;98.37;99418.97;5069380;28;20206;-61
2022/12/14 03:22:57;;;;;;;11.23;7.90;;;;;;;2.16;99.51;99413.78;5070608;28;20651;-61
2022/12/14 03:25:29;;;;;;;9.93;8.13;;;;;;;2.29;99.24;99404.44;5072430;28;20229;-57
2022/12/14 03:28:04;;;;;;;11.67;7.57;;;;;;;2.27;98.02;99413.81;5072946;28;20307;-61
2022/12/14 03:30:36;;;;;;;9.47;7.20;;;;;;;2.16;97.27;99414.66;5073189;28;20235;-61
2022/12/14 03:33:11;;;;;;;12.43;7.80;;;;;;;2.12;98.64;99412.97;5072606;28;20220;-58
2022/12/14 03:35:46;;;;;;;13.47;8.87;;;;;;;2.21;98.70;99417.25;5073233;28;20202;-61
2022/12/14 03:38:20;;;;;;;10.23;7.30;;;;;;;2.19;98.32;99418.94;5071980;28;20202;-56
2022/12/14 03:40:55;;;;;;;12.67;8.40;;;;;;;2.22;99.08;99426.63;5073342;28;20191;-61
2022/12/14 03:43:31;;;;;;;12.83;8.33;;;;;;;2.26;98.14;99436.03;5072053;28;20575;-57
2022/12/14 03:46:05;;;;;;;10.87;7.77;;;;;;;2.31;97.32;99434.34;5071501;28;20196;-57
2022/12/14 03:48:39;;;;;;;12.20;8.10;;;;;;;2.29;98.26;99432.63;5072110;28;20197;-57
2022/12/14 03:51:14;;;;;;;12.53;8.13;;;;;;;2.32;97.99;99436.06;5072687;28;20201;-57
2022/12/14 03:53:47;;;;;;;10.27;8.10;;;;;;;2.34;98.11;99425.81;5072032;28;20194;-56
2022/12/14 03:56:19;;;;;;;13.13;9.20;;;;;;;2.39;97.73;99422.41;5072546;28;20187;-61
2022/12/14 03:58:53;;;;;;;11.77;8.63;;;;;;;2.35;96.54;99424.97;5072998;28;20226;-61
2022/12/14 04:01:25;;;;;;;14.60;9.43;;;;;;;2.37;96.92;99428.41;5072310;28;20788;-56
2022/12/14 04:04:00;;;;;;;12.03;9.07;;;;;;;2.35;97.33;99428.38;5072622;28;20721;-61
2022/12/14 04:06:37;;;;;;;11.27;8.13;;;;;;;2.29;97.86;99419.81;5072134;28;20197;-56
2022/12/14 04:09:16;;;;;;;14.27;9.30;;;;;;;2.28;98.23;99413.84;5071667;28;20194;-56
2022/12/14 04:20:18;;;;;;;11.23;7.77;;;;;;;2.30;98.97;99413.84;5070586;28;20216;-61
2022/12/14 04:22:49;;;;;;;10.67;8.00;;;;;;;2.31;99.14;99410.44;5071529;28;20225;-62
2022/12/14 04:29:54;;;;;;;11.90;8.77;;;;;;;2.37;97.36;99418.97;5070643;28;20764;-62
2022/12/14 04:31:01;;;;;;;14.57;9.13;;;;;;;2.37;97.18;99413.03;5070553;28;20215;-62
2022/12/14 04:33:48;;;;;;;13.13;8.47;;;;;;;2.35;97.36;99410.47;5071268;28;20220;-62
2022/12/14 04:36:24;;;;;;;14.53;9.23;;;;;;;2.31;97.55;99413.00;5091568;28;20205;-62
2022/12/14 04:38:56;;;;;;;16.63;10.77;;;;;;;2.27;98.85;99416.38;5090821;28;20293;-62
2022/12/14 04:41:29;;;;;;;14.40;9.33;;;;;;;2.25;99.99;99411.28;5091955;28;20201;-61
2022/12/14 04:44:00;;;;;;;15.80;10.20;;;;;;;2.31;98.48;99402.75;5049453;28;20591;-58
2022/12/14 04:46:29;;;;;;;13.60;9.63;;;;;;;2.29;99.25;99395.06;5051793;28;20292;-56
2022/12/14 04:49:01;;;;;;;16.33;9.77;;;;;;;2.29;99.29;99399.31;5070062;28;20205;-56
2022/12/14 04:51:36;;;;;;;16.03;10.00;;;;;;;2.28;99.09;99407.84;5070238;28;20563;-57
2022/12/14 04:54:11;;;;;;;15.05;9.77;;;;;;;2.27;100.00;99412.13;5069110;28;20442;-56
2022/12/14 04:56:44;;;;;;;15.07;10.17;;;;;;;2.40;99.89;99420.69;5050097;28;20199;-57
2022/12/14 04:59:11;;;;;;;13.37;9.30;;;;;;;2.42;99.57;99431.81;5049885;28;20210;-58
2022/12/14 05:01:45;;;;;;;16.57;9.93;;;;;;;2.44;100.00;99418.16;5062161;28;20205;-58
2022/12/14 05:04:23;;;;;;;16.47;9.50;;;;;;;2.42;100.00;99416.44;5069521;28;20221;-57
2022/12/14 05:07:04;;;;;;;14.43;9.40;;;;;;;2.37;100.00;99420.72;5069579;28;20290;-57
2022/12/14 05:09:36;;;;;;;16.63;9.47;;;;;;;2.33;100.00;99427.53;5052233;28;20238;-57
2022/12/14 05:12:07;;;;;;;11.63;8.10;;;;;;;2.35;100.00;99430.09;5069401;28;20230;-57
2022/12/14 05:14:39;;;;;;;13.60;8.47;;;;;;;2.32;100.00;99430.94;5068246;28;20356;-57
2022/12/14 05:17:07;;;;;;;16.73;8.83;;;;;;;2.38;100.00;99424.97;5068808;28;20249;-61
2022/12/14 05:19:34;;;;;;;17.57;9.17;;;;;;;2.37;100.00;99424.09;5069044;28;20230;-60
2022/12/14 05:22:06;;;;;;;13.33;8.70;;;;;;;2.37;100.00;99420.72;5068488;28;20199;-61
2022/12/14 05:24:33;;;;;;;16.87;9.97;;;;;;;2.34;100.00;99428.38;5069100;28;20229;-61
2022/12/14 05:27:00;;;;;;;17.47;9.80;;;;;;;2.39;100.00;99432.66;5070027;28;20202;-62
2022/12/14 05:29:27;;;;;;;14.37;9.27;;;;;;;2.45;100.00;99431.81;5069756;28;20201;-61
2022/12/14 05:31:54;;;;;;;14.70;9.60;;;;;;;2.48;100.00;99424.16;5068994;28;20199;-61
2022/12/14 05:34:21;;;;;;;15.97;9.17;;;;;;;2.45;100.00;99421.56;5067868;28;20196;-63
2022/12/14 05:36:48;;;;;;;13.60;9.30;;;;;;;2.42;100.00;99426.69;5069326;28;20193;-61
2022/12/14 05:39:17;;;;;;;14.63;8.43;;;;;;;2.23;100.00;99425.78;5068690;28;20695;-61
2022/12/14 05:41:44;;;;;;;15.00;9.87;;;;;;;2.12;100.00;99433.44;5070049;28;20688;-61
2022/12/14 05:44:11;;;;;;;15.97;9.87;;;;;;;2.24;100.00;99442.88;5069633;28;20706;-57
2022/12/14 05:46:38;;;;;;;17.70;11.10;;;;;;;2.17;100.00;99439.41;5069033;28;20206;-57
2022/12/14 05:49:05;;;;;;;21.97;10.23;;;;;;;2.36;100.00;99436.94;5069583;28;20586;-56
2022/12/14 05:51:33;;;;;;;15.33;9.27;;;;;;;2.31;100.00;99444.59;5069676;28;20690;-56
2022/12/14 05:53:59;;;;;;;15.77;8.90;;;;;;;2.19;100.00;99457.34;5069016;28;20205;-57
2022/12/14 05:56:28;;;;;;;17.90;10.90;;;;;;;2.27;100.00;99467.59;5068556;28;20201;-57
2022/12/14 05:58:55;;;;;;;17.27;10.30;;;;;;;2.36;100.00;99462.53;5068321;28;20561;-56
2022/12/14 06:01:21;;;;;;;16.27;10.17;;;;;;;2.31;100.00;99469.34;5068096;28;20205;-57
2022/12/14 06:03:51;;;;;;;13.27;8.97;;;;;;;2.28;100.00;99459.06;5069519;28;20203;-57
2022/12/14 06:06:18;;;;;;;17.30;10.07;;;;;;;2.26;100.00;99451.38;5068830;28;21003;-57
2022/12/14 06:08:46;;;;;;;15.53;9.83;;;;;;;2.32;100.00;99455.69;5068662;28;20647;-56
2022/12/14 06:11:15;;;;;;;17.87;11.40;;;;;;;2.42;100.00;99447.19;5069257;28;20202;-57
2022/12/14 06:13:44;;;;;;;37.33;17.57;;;;;;;2.48;100.00;99447.22;5069210;28;20202;-56
2022/12/14 06:16:13;;;;;;;23.97;13.43;;;;;;;2.34;100.00;99464.25;5068833;28;20201;-61
2022/12/14 06:18:44;;;;;;;18.10;11.73;;;;;;;2.27;100.00;99465.03;5069783;28;20196;-61
2022/12/14 06:21:12;;;;;;;21.60;12.40;;;;;;;2.37;100.00;99466.81;5069215;28;20214;-61
2022/12/14 06:23:39;;;;;;;19.17;12.73;;;;;;;2.32;100.00;99465.94;5069280;28;20203;-57
2022/12/14 06:26:06;;;;;;;30.43;14.37;;;;;;;2.46;100.00;99465.13;5069194;28;20223;-57
2022/12/14 06:28:34;;;;;;;27.60;13.97;;;;;;;2.47;100.00;99461.72;5069378;28;20589;-57
2022/12/14 06:31:03;;;;;;;25.17;13.13;;;;;;;2.50;100.00;99463.41;5069254;28;20294;-56
2022/12/14 06:33:32;;;;;;;21.80;13.33;;;;;;;2.64;100.00;99466.88;5069152;28;20205;-56
2022/12/14 06:35:59;;;;;;;23.27;14.80;;;;;;;2.63;100.00;99472.00;5069364;28;20203;-57
2022/12/14 06:38:26;;;;;;;26.53;15.27;;;;;;;2.65;100.00;99478.84;5069366;28;20198;-56
2022/12/14 06:40:53;;;;;;;27.30;14.47;;;;;;;2.69;100.00;99467.75;5069525;28;20195;-57
2022/12/14 06:43:20;;;;;;;28.63;16.77;;;;;;;2.74;100.00;99478.00;5069387;28;20294;-56
2022/12/14 06:45:47;;;;;;;32.97;16.70;;;;;;;2.69;100.00;99487.41;5068962;28;20742;-57
2022/12/14 06:48:15;;;;;;;33.40;17.60;;;;;;;2.87;100.00;99488.28;5069140;28;20194;-61
2022/12/14 06:50:42;;;;;;;24.20;14.17;;;;;;;2.96;100.00;99494.25;5069046;28;20209;-61
2022/12/14 06:53:12;;;;;;;24.27;12.40;;;;;;;3.10;100.00;99496.00;5068937;28;20202;-62
2022/12/14 06:55:39;;;;;;;19.70;12.37;;;;;;;3.39;99.31;99501.13;5068653;28;20202;-61
2022/12/14 06:58:06;;;;;;;20.23;11.17;;;;;;;3.44;97.28;99507.13;5067608;28;20192;-61
2022/12/14 07:00:33;;;;;;;16.07;10.73;;;;;;;3.47;96.43;99502.00;5070156;28;20604;-61
2022/12/14 07:03:00;;;;;;;14.07;11.03;;;;;;;3.68;95.46;99503.69;5071803;28;20223;-60
2022/12/14 07:05:28;;;;;;;19.37;13.00;;;;;;;3.79;94.26;99501.09;5072034;28;20232;-60
2022/12/14 07:07:55;;;;;;;16.97;12.07;;;;;;;3.65;93.42;99508.81;5071952;28;20255;-60
2022/12/14 07:10:22;;;;;;;15.70;11.13;;;;;;;3.77;91.16;99515.63;5072274;28;20718;-61
2022/12/14 07:12:49;;;;;;;19.67;12.37;;;;;;;4.04;91.66;99515.59;5072230;28;20220;-60
2022/12/14 07:15:16;;;;;;;23.00;12.77;;;;;;;4.23;89.30;99509.53;5070595;28;20226;-61
2022/12/14 07:17:43;;;;;;;15.33;11.43;;;;;;;4.36;86.57;99512.91;5069913;28;20219;-60
2022/12/14 07:20:10;;;;;;;15.40;10.30;;;;;;;4.35;86.01;99516.34;5070526;28;20224;-61
2022/12/14 07:22:39;;;;;;;19.83;11.93;;;;;;;4.61;85.62;99511.97;5069954;28;20734;-60
2022/12/14 07:25:07;;;;;;;19.53;11.33;;;;;;;4.62;84.46;99490.53;5070293;28;20584;-60
2022/12/14 07:27:34;;;;;;;17.83;10.80;;;;;;;4.67;87.82;99486.19;5071935;28;20203;-61
2022/12/14 07:30:01;;;;;;;16.33;11.60;;;;;;;4.81;84.73;99495.56;5072531;28;20668;-62
2022/12/14 07:32:28;;;;;;;17.50;10.70;;;;;;;4.80;83.10;99501.56;5072385;28;20206;-60
2022/12/14 07:34:55;;;;;;;15.10;10.53;;;;;;;4.90;82.14;99492.94;5072236;28;20279;-60
2022/12/14 07:37:23;;;;;;;14.93;11.07;;;;;;;4.88;80.46;99500.66;5071227;28;20197;-61
2022/12/14 07:39:51;;;;;;;16.20;10.60;;;;;;;4.86;81.09;99507.50;5072176;28;20672;-60
2022/12/14 07:42:18;;;;;;;23.63;11.90;;;;;;;4.82;80.97;99503.28;5070987;28;20204;-61
2022/12/14 07:44:45;;;;;;;18.63;10.33;;;;;;;4.80;81.68;99505.00;5072234;28;20228;-57
2022/12/14 07:47:11;;;;;;;19.67;11.60;;;;;;;4.84;81.79;99500.69;5072044;28;20654;-57
2022/12/14 07:49:38;;;;;;;20.20;11.17;;;;;;;4.79;81.35;99498.13;5072042;28;20241;-56
2022/12/14 07:52:05;;;;;;;17.90;10.93;;;;;;;4.73;80.08;99493.91;5072088;28;20200;-56
2022/12/14 07:54:32;;;;;;;12.93;9.23;;;;;;;4.56;79.60;99500.81;5071609;28;20198;-57
2022/12/14 07:57:00;;;;;;;16.97;8.87;;;;;;;4.65;79.55;99507.63;5071473;28;20196;-57
2022/12/14 07:59:27;;;;;;;18.77;8.90;;;;;;;4.68;82.15;99518.75;5071727;28;20204;-57
2022/12/14 08:01:55;;;;;;;13.43;9.50;;;;;;;4.81;81.11;99521.28;5071995;28;20283;-59
2022/12/14 08:04:22;;;;;;;15.27;9.63;;;;;;;4.88;81.93;99521.22;5071636;28;20245;-59
2022/12/14 08:06:49;;;;;;;12.97;9.00;;;;;;;4.93;80.33;99523.78;5071679;28;20206;-60
2022/12/14 08:09:18;;;;;;;12.43;9.03;;;;;;;4.95;81.23;99530.63;5070773;28;20203;-60
2022/12/14 08:11:46;;;;;;;12.20;8.70;;;;;;;5.03;80.27;99539.13;5071582;28;20209;-60
2022/12/14 08:14:17;;;;;;;22.00;10.20;;;;;;;4.90;80.65;99537.50;5071455;28;20203;-59
2022/12/14 08:16:44;;;;;;;13.90;9.47;;;;;;;4.84;79.21;99536.69;5071486;28;20192;-59
2022/12/14 08:19:12;;;;;;;14.57;9.33;;;;;;;4.82;79.94;99530.69;5071496;28;20610;-60
2022/12/14 08:21:39;;;;;;;9.80;7.87;;;;;;;4.85;78.92;99525.53;5071293;28;20204;-57
2022/12/14 08:24:06;;;;;;;10.80;8.50;;;;;;;4.96;78.87;99524.63;5071957;28;20237;-58
2022/12/14 08:26:33;;;;;;;11.37;8.60;;;;;;;5.08;79.03;99524.50;5071303;28;20224;-57
2022/12/14 08:29:00;;;;;;;20.73;13.67;;;;;;;5.12;80.24;99530.50;5071283;28;20204;-60
2022/12/14 08:31:29;;;;;;;14.50;10.53;;;;;;;5.22;79.44;99539.88;5071277;28;20616;-57
2022/12/14 08:33:57;;;;;;;10.30;8.50;;;;;;;5.17;78.22;99541.63;5071292;28;20294;-56
2022/12/14 08:36:27;;;;;;;10.17;7.93;;;;;;;4.98;78.26;99522.88;5070933;28;20288;-57
2022/12/14 08:38:55;;;;;;;10.23;7.93;;;;;;;5.05;77.84;99529.69;5071416;28;20196;-57
2022/12/14 08:41:23;;;;;;;12.57;9.10;;;;;;;5.21;79.37;99534.72;5071162;28;20207;-56
2022/12/14 08:43:52;;;;;;;15.03;9.53;;;;;;;5.47;78.81;99540.53;5071157;28;20291;-56
2022/12/14 08:46:20;;;;;;;16.27;10.77;;;;;;;5.31;77.97;99532.06;5070492;28;20224;-57
2022/12/14 08:48:51;;;;;;;15.77;8.97;;;;;;;5.22;78.32;99523.56;5070883;28;20200;-56
2022/12/14 08:51:18;;;;;;;12.23;8.50;;;;;;;5.38;77.13;99536.34;5070821;28;20200;-57
2022/12/14 08:53:49;;;;;;;12.53;8.70;;;;;;;5.21;77.57;99539.88;5070982;28;20310;-57
2022/12/14 08:56:18;;;;;;;15.07;9.20;;;;;;;5.26;78.50;99540.72;5070030;28;20188;-57
2022/12/14 08:58:45;;;;;;;21.03;13.50;;;;;;;5.28;78.35;99544.13;5070266;28;20741;-56
2022/12/14 09:01:15;;;;;;;13.10;9.70;;;;;;;5.31;78.16;99533.78;5069814;28;20663;-61
2022/12/14 09:03:43;;;;;;;21.57;9.63;;;;;;;5.39;78.54;99522.59;5070343;28;20200;-57
2022/12/14 09:06:13;;;;;;;15.57;10.90;;;;;;;5.47;78.82;99520.81;5070342;28;20227;-56
2022/12/14 09:08:41;;;;;;;13.63;9.47;;;;;;;5.45;77.90;99521.69;5070309;28;20231;-57
2022/12/14 09:11:12;;;;;;;10.77;8.63;;;;;;;5.39;78.81;99511.44;5070566;28;20301;-60
2022/12/14 09:13:39;;;;;;;11.93;9.40;;;;;;;5.43;77.28;99513.97;5070569;28;20638;-61
2022/12/14 09:16:08;;;;;;;13.33;9.33;;;;;;;5.49;78.90;99518.22;5070440;28;20196;-55
2022/12/14 09:18:35;;;;;;;13.20;9.43;;;;;;;5.62;77.38;99519.84;5070213;28;20204;-56
2022/12/14 09:21:02;;;;;;;23.13;15.37;;;;;;;5.85;76.69;99514.47;5069693;28;20194;-56
2022/12/14 09:23:32;;;;;;;26.53;14.80;;;;;;;5.88;76.08;99510.97;5070067;28;20299;-57
2022/12/14 09:26:02;;;;;;;17.77;12.27;;;;;;;5.92;77.08;99502.41;5070079;28;20223;-57
2022/12/14 09:28:29;;;;;;;17.03;11.00;;;;;;;5.77;76.41;99491.34;5069832;28;20198;-56
2022/12/14 09:30:57;;;;;;;19.77;12.27;;;;;;;5.64;77.03;99481.19;5070255;28;20206;-56
2022/12/14 09:33:24;;;;;;;17.77;11.97;;;;;;;5.44;77.98;99471.91;5069759;28;20249;-56
2022/12/14 09:35:51;;;;;;;14.20;9.57;;;;;;;5.41;77.39;99447.94;5069703;28;20222;-57
2022/12/14 09:38:20;;;;;;;11.80;7.57;;;;;;;5.06;77.47;99454.25;5069931;28;20192;-55
2022/12/14 09:40:59;;;;;;;12.17;10.83;;;;;;;4.84;79.30;99462.97;5069878;28;20262;-55
2022/12/14 09:43:42;;;;;;;11.33;8.63;;;;;;;4.74;79.91;99456.16;5069692;28;20199;-55
2022/12/14 09:46:32;;;;;;;16.93;10.53;;;;;;;4.68;80.13;99457.06;5068108;28;20221;-61
2022/12/14 09:49:01;;;;;;;20.57;11.10;;;;;;;4.73;80.30;99462.19;5069271;28;20290;-61
2022/12/14 09:51:33;;;;;;;13.27;9.43;;;;;;;4.79;79.97;99464.72;5069050;28;20203;-60
2022/12/14 09:54:05;;;;;;;21.20;11.90;;;;;;;4.81;79.48;99450.13;5069878;28;20730;-61
2022/12/14 09:56:34;;;;;;;15.10;8.57;;;;;;;4.70;80.03;99457.06;5069514;28;20200;-56
2022/12/14 09:59:02;;;;;;;13.57;9.13;;;;;;;4.81;80.01;99439.00;5069964;28;20254;-56
2022/12/14 10:01:45;;;;;;;12.37;9.10;;;;;;;4.90;80.17;99449.22;5068967;28;20191;-57
2022/12/14 10:04:24;;;;;;;13.60;9.00;;;;;;;4.85;80.71;99438.97;5069625;28;20602;-57
2022/12/14 10:07:01;;;;;;;12.20;9.03;;;;;;;5.03;80.44;99437.97;5069526;28;20217;-61
2022/12/14 10:09:36;;;;;;;12.67;8.67;;;;;;;4.98;80.88;99430.28;5068938;28;20196;-60
2022/12/14 10:12:22;;;;;;;15.47;10.37;;;;;;;5.05;80.31;99444.81;5068400;28;20202;-60
2022/12/14 10:15:02;;;;;;;12.33;9.20;;;;;;;5.06;80.43;99436.22;5069379;28;20195;-56
2022/12/14 10:17:41;;;;;;;14.17;9.40;;;;;;;5.11;80.40;99439.59;5069425;28;20848;-56
2022/12/14 10:20:17;;;;;;;12.03;9.40;;;;;;;5.02;80.73;99449.97;5069310;28;20195;-57
2022/12/14 10:22:48;;;;;;;18.60;13.23;;;;;;;5.17;81.06;99461.03;5068595;28;20196;-57
2022/12/14 10:25:19;;;;;;;14.77;9.20;;;;;;;5.30;80.93;99452.34;5069211;28;20200;-57
2022/12/14 10:27:54;;;;;;;24.20;16.27;;;;;;;5.47;80.80;99453.03;5069289;28;20207;-56
2022/12/14 10:30:21;;;;;;;14.90;9.80;;;;;;;5.57;79.85;99449.50;5068945;28;20195;-56
2022/12/14 10:32:51;;;;;;;15.57;9.43;;;;;;;5.73;79.64;99443.34;5068484;28;20201;-57
2022/12/14 10:35:23;;;;;;;21.03;13.20;;;;;;;5.88;78.97;99437.19;5068995;28;20218;-61
2022/12/14 10:37:58;;;;;;;16.47;10.90;;;;;;;5.90;78.73;99438.00;5069156;28;20257;-60
2022/12/14 10:40:28;;;;;;;13.33;9.70;;;;;;;5.90;78.68;99434.59;5068907;28;20202;-57
2022/12/14 10:43:07;;;;;;;13.60;10.03;;;;;;;6.04;78.39;99427.56;5069074;28;20204;-61
2022/12/14 10:45:45;;;;;;;17.23;11.70;;;;;;;6.22;78.52;99422.16;5068694;28;20222;-61
2022/12/14 10:48:45;;;;;;;16.53;11.60;;;;;;;6.27;77.55;99412.66;5069297;28;20582;-60
2022/12/14 10:51:18;;;;;;;13.80;10.27;;;;;;;6.32;77.02;99397.97;5035472;28;20613;-60
2022/12/14 10:53:50;;;;;;;16.73;10.47;;;;;;;6.44;76.90;99394.38;5069088;28;20227;-60
2022/12/14 10:56:21;;;;;;;15.73;11.40;;;;;;;6.50;76.05;99389.16;5068699;28;20196;-60
2022/12/14 10:59:26;;;;;;;15.30;9.83;;;;;;;6.55;75.78;99383.03;5069169;28;20199;-60
2022/12/14 11:02:01;;;;;;;14.80;9.80;;;;;;;6.53;76.19;99383.97;5053309;28;20199;-60
2022/12/14 11:04:31;;;;;;;16.50;10.60;;;;;;;6.44;75.50;99389.22;5068649;28;20689;-60
2022/12/14 11:07:01;;;;;;;20.47;13.27;;;;;;;6.29;77.14;99385.16;5068191;28;20235;-60
2022/12/14 11:09:28;;;;;;;15.23;11.00;;;;;;;6.23;77.00;99385.22;5068588;28;20198;-57
2022/12/14 11:11:59;;;;;;;15.60;11.50;;;;;;;6.17;78.07;99381.00;5068897;28;20204;-57
2022/12/14 11:14:26;;;;;;;16.17;12.13;;;;;;;6.35;77.38;99379.91;5068616;28;20202;-56
2022/12/14 11:16:55;;;;;;;18.20;12.80;;;;;;;6.38;77.29;99363.53;5068622;28;20196;-57
2022/12/14 11:19:23;;;;;;;15.80;10.37;;;;;;;6.30;77.47;99355.06;5068761;28;20235;-60
2022/12/14 11:21:51;;;;;;;21.50;14.50;;;;;;;6.23;77.93;99356.00;5068814;28;20204;-61
2022/12/14 11:24:23;;;;;;;14.93;10.30;;;;;;;6.12;77.89;99353.59;5068809;28;20192;-60
2022/12/14 11:26:53;;;;;;;20.97;13.07;;;;;;;6.03;78.22;99341.69;5068751;28;20227;-59
2022/12/14 11:29:28;;;;;;;23.37;16.07;;;;;;;6.12;78.17;99349.28;5068592;28;20207;-56
2022/12/14 11:31:57;;;;;;;23.30;15.17;;;;;;;6.19;78.77;99350.94;5068458;28;20205;-56
2022/12/14 11:34:31;;;;;;;26.63;15.87;;;;;;;6.27;78.30;99350.81;5068160;28;20198;-56
2022/12/14 11:37:11;;;;;;;20.20;12.97;;;;;;;6.24;77.78;99340.53;5068266;28;20607;-55
2022/12/14 11:39:41;;;;;;;40.10;20.07;;;;;;;6.37;77.84;99341.22;5064051;28;20194;-57
2022/12/14 11:42:16;;;;;;;18.70;11.47;;;;;;;6.30;77.03;99340.47;5048517;28;20738;-57
2022/12/14 11:44:43;;;;;;;20.80;12.47;;;;;;;6.24;76.33;99324.22;5059702;28;20202;-56
2022/12/14 11:47:14;;;;;;;33.80;18.07;;;;;;;6.27;76.78;99335.34;5052085;28;20228;-60
2022/12/14 11:49:44;;;;;;;19.37;12.03;;;;;;;6.33;76.24;99335.25;5060987;28;20199;-56
2022/12/14 11:52:13;;;;;;;12.27;9.33;;;;;;;6.04;76.46;99316.78;5069643;28;20194;-56
2022/12/14 11:54:41;;;;;;;18.10;11.10;;;;;;;5.96;77.77;99336.66;5067976;28;20625;-56
2022/12/14 11:57:18;;;;;;;30.77;17.83;;;;;;;5.97;78.17;99336.63;5071071;28;20188;-56